createdAt,value
2018-12-06T00:06:43.000Z,1006.269
2018-12-06T00:16:43.000Z,1006.313
2018-12-06T00:26:43.000Z,1006.315
2018-12-06T00:36:43.000Z,1006.209
2018-12-06T00:46:43.000Z,1006.144
2018-12-06T00:56:43.000Z,1006.106
2018-12-06T01:06:43.000Z,1006
2018-12-06T01:16:45.000Z,1006.001
2018-12-06T01:26:43.000Z,1006.025
2018-12-06T01:36:43.000Z,1005.944
2018-12-06T01:46:43.000Z,1005.88
2018-12-06T01:56:43.000Z,1005.76
2018-12-06T02:06:43.000Z,1005.724
2018-12-06T02:16:43.000Z,1005.624
2018-12-06T02:26:43.000Z,1005.628
2018-12-06T02:36:43.000Z,1005.5
2018-12-06T02:46:43.000Z,1005.472
2018-12-06T02:56:43.000Z,1005.335
2018-12-06T03:06:43.000Z,1005.461
2018-12-06T03:16:43.000Z,1005.548
2018-12-06T03:26:43.000Z,1005.585
2018-12-06T03:36:43.000Z,1005.556
2018-12-06T03:46:43.000Z,1005.607
2018-12-06T03:56:43.000Z,1005.456
2018-12-06T04:06:43.000Z,1005.331
2018-12-06T04:16:43.000Z,1005.408
2018-12-06T04:26:45.000Z,1005.442
2018-12-06T04:36:43.000Z,1005.258
2018-12-06T04:46:43.000Z,1005.449
2018-12-06T04:56:44.000Z,1005.55
2018-12-06T05:06:43.000Z,1005.686
2018-12-06T05:16:43.000Z,1005.697
2018-12-06T05:26:43.000Z,1005.72
2018-12-06T05:36:43.000Z,1005.89
2018-12-06T05:46:43.000Z,1006.018
2018-12-06T05:56:43.000Z,1006.007
2018-12-06T06:06:43.000Z,1006.039
2018-12-06T06:16:43.000Z,1005.717
2018-12-06T06:26:43.000Z,1005.774
2018-12-06T06:36:43.000Z,1005.956
2018-12-06T06:46:43.000Z,1006.271
2018-12-06T06:56:43.000Z,1006.411
2018-12-06T07:06:43.000Z,1006.653
2018-12-06T07:16:43.000Z,1006.759
2018-12-06T07:26:43.000Z,1006.789
2018-12-06T07:36:44.000Z,1006.848
2018-12-06T07:46:43.000Z,1006.955
2018-12-06T07:56:43.000Z,1007.035
2018-12-06T08:06:43.000Z,1007.127
2018-12-06T08:16:44.000Z,1007.064
2018-12-06T08:26:44.000Z,1007.135
2018-12-06T08:36:44.000Z,1007.002
2018-12-06T08:46:44.000Z,1007.009
2018-12-06T08:56:44.000Z,1007.146
2018-12-06T09:06:44.000Z,1007.177
2018-12-06T09:16:44.000Z,1007.299
2018-12-06T09:26:44.000Z,1007.397
2018-12-06T09:36:44.000Z,1007.288
2018-12-06T09:46:44.000Z,1007.322
2018-12-06T09:56:44.000Z,1007.206
2018-12-06T10:06:44.000Z,1007.253
2018-12-06T10:16:44.000Z,1007.346
2018-12-06T10:26:44.000Z,1007.303
2018-12-06T10:36:44.000Z,1007.277
2018-12-06T10:46:44.000Z,1007.349
2018-12-06T10:56:44.000Z,1007.487
2018-12-06T11:06:44.000Z,1007.343
2018-12-06T11:16:44.000Z,1007.363
2018-12-06T11:26:44.000Z,1007.389
2018-12-06T11:36:44.000Z,1007.39
2018-12-06T11:46:44.000Z,1007.438
2018-12-06T11:56:44.000Z,1007.634
2018-12-06T12:06:44.000Z,1007.631
2018-12-06T12:16:44.000Z,1007.504
2018-12-06T12:26:44.000Z,1007.335
2018-12-06T12:36:44.000Z,1007.372
2018-12-06T12:46:44.000Z,1007.436
2018-12-06T12:56:44.000Z,1007.378
2018-12-06T13:06:44.000Z,1007.546
2018-12-06T13:16:44.000Z,1007.413
2018-12-06T13:26:44.000Z,1007.385
2018-12-06T13:36:44.000Z,1007.386
2018-12-06T13:46:44.000Z,1007.541
2018-12-06T13:56:44.000Z,1007.456
2018-12-06T14:06:44.000Z,1007.478
2018-12-06T14:16:44.000Z,1007.441
2018-12-06T14:26:44.000Z,1007.444
2018-12-06T14:36:44.000Z,1007.609
2018-12-06T14:46:45.000Z,1007.616
2018-12-06T14:56:44.000Z,1007.642
2018-12-06T15:06:44.000Z,1007.593
2018-12-06T15:16:44.000Z,1007.568
2018-12-06T15:26:44.000Z,1007.55
2018-12-06T15:36:44.000Z,1007.753
2018-12-06T15:46:45.000Z,1007.554
2018-12-06T15:56:44.000Z,1007.609
2018-12-06T16:06:44.000Z,1007.499
2018-12-06T16:16:44.000Z,1007.366
2018-12-06T16:26:45.000Z,1007.139
2018-12-06T16:36:45.000Z,1007.117
2018-12-06T16:46:45.000Z,1007.151
2018-12-06T16:56:45.000Z,1007.305
2018-12-06T17:06:45.000Z,1007.357
2018-12-06T17:16:45.000Z,1007.276
2018-12-06T17:26:45.000Z,1007.136
2018-12-06T17:36:45.000Z,1007.082
2018-12-06T17:46:45.000Z,1007.033
2018-12-06T17:56:45.000Z,1007.031
2018-12-06T18:06:45.000Z,1007.066
2018-12-06T18:16:45.000Z,1007.017
2018-12-06T18:26:47.000Z,1006.992
2018-12-06T18:36:45.000Z,1007.042
2018-12-06T18:46:45.000Z,1006.964
2018-12-06T18:56:45.000Z,1006.911
2018-12-06T19:06:45.000Z,1006.987
2018-12-06T19:16:48.000Z,1006.968
2018-12-06T19:26:45.000Z,1007.001
2018-12-06T19:36:45.000Z,1006.867
2018-12-06T19:46:45.000Z,1006.733
2018-12-06T19:56:45.000Z,1006.498
2018-12-06T20:06:45.000Z,1006.536
2018-12-06T20:16:45.000Z,1006.499
2018-12-06T20:26:45.000Z,1006.41
2018-12-06T20:36:47.000Z,1006.402
2018-12-06T20:46:45.000Z,1006.39
2018-12-06T20:56:45.000Z,1006.275
2018-12-06T21:06:45.000Z,1006.101
2018-12-06T21:16:45.000Z,1006.129
2018-12-06T21:26:45.000Z,1006.207
2018-12-06T21:36:46.000Z,1006.139
2018-12-06T21:46:45.000Z,1006.102
2018-12-06T21:56:45.000Z,1006.107
2018-12-06T22:06:45.000Z,1005.921
2018-12-06T22:16:45.000Z,1005.902
2018-12-06T22:26:45.000Z,1005.883
2018-12-06T22:36:45.000Z,1005.793
2018-12-06T22:46:45.000Z,1005.864
2018-12-06T22:56:45.000Z,1005.828
2018-12-06T23:06:46.000Z,1005.788
2018-12-06T23:16:45.000Z,1005.786
2018-12-06T23:26:45.000Z,1005.739
2018-12-06T23:36:45.000Z,1005.676
2018-12-06T23:46:45.000Z,1005.615
2018-12-06T23:56:45.000Z,1005.576
